Weather



ICAO METAR
KAEX KAEX 020353Z AUTO 05004KT 10SM CLR 22/18 A3008 RMK AO2 SLP187 T02170183
KAUS KAUS 020353Z 18003KT 10SM FEW037 SCT075 23/21 A3009 RMK AO2 SLP181 T02330211 $
KBPT KBPT 020353Z AUTO 00000KT 10SM CLR 25/21 A3007 RMK AO2 SLP182 T02500206 $
KBTR KBTR 020353Z AUTO 05003KT 10SM CLR 25/20 A3009 RMK AO2 SLP188 T02500200
KCLL KCLL 020353Z AUTO 10005KT 10SM SCT041 BKN050 26/20 A3009 RMK AO2 SLP184 T02610200
KCRP KCRP 020351Z 05003KT 10SM FEW011 SCT017 SCT180 BKN250 24/23 A3003 RMK AO2 SLP168 T02390228
KCXO KCXO 020353Z AUTO 00000KT 10SM CLR 23/21 A3010 RMK AO2 SLP188 T02280211
KDLF KDLF 020356Z AUTO 10008KT 10SM CLR 23/20 A3005 RMK AO2 SLP166 T02330202 $
KDWH KDWH 020353Z AUTO 10003KT 10SM BKN120 24/20 A3009 RMK AO2 SLP187 T02440200
KEFD KEFD 020250Z 04003KT 10SM FEW035 BKN250 25/22 A3005
KGLS KGLS 020352Z AUTO 10007KT 10SM CLR 28/21 A3007 RMK AO2 SLP182 T02780211
KGPT KGPT 020353Z 00000KT 10SM CLR 25/19 A3009 RMK AO2 SLP188 T02500194
KHOU KHOU 020353Z 06005KT 10SM FEW020 BKN250 26/22 A3007 RMK AO2 SLP188 T02610222
KHRL KHRL 020352Z 34003KT 10SM OVC014 24/23 A3000 RMK AO2 SLP160 T02440233
KIAH KIAH 020353Z 00000KT 10SM FEW035 FEW120 BKN250 24/21 A3009 RMK AO2 SLP188 T02390211
KLCH KLCH 020353Z AUTO 07004KT 10SM CLR 24/22 A3008 RMK AO2 SLP192 T02390217
KMOB KMOB 020356Z 00000KT 10SM BKN250 22/19 A3012 RMK AO2 SLP195 T02220189
KMSY KMSY 020353Z 00000KT 10SM BKN160 BKN250 27/22 A3008 RMK AO2 SLP189 T02670222
KSAT KSAT 020351Z 08003KT 10SM FEW250 23/19 A3009 RMK AO2 SLP173 T02330189
KSGR KSGR 020353Z AUTO 03003KT 10SM CLR 23/23 A3008 RMK AO2 SLP185 T02330228
KTME KTME 020355Z AUTO 00000KT 10SM CLR 24/23 A3010 RMK AO2